Time;durP1;ratioP1;P1;durP2;ratioP2;P2;SDS_P1;SDS_P2;PMS_P1;PMS_P2;Temp;Humidity;BMP_temperature;BMP_pressure;BME280_temperature;BME280_humidity;BME280_pressure;Samples;Min_cycle;Max_cycle;Signal;HPM_P1;HPM_P2
2021/12/15 00:15:09;;;;;;;48.20;21.45;;;;;;;-3.71;95.69;100751.31;6211397;23;20087;-74
2021/12/15 00:17:36;;;;;;;59.60;23.08;;;;;;;-3.75;95.61;100741.88;6210942;23;20024;-74
2021/12/15 00:20:09;;;;;;;56.08;23.98;;;;;;;-3.71;95.77;100748.78;6160255;23;20104;-72
2021/12/15 00:22:35;;;;;;;46.38;21.17;;;;;;;-3.70;95.52;100746.22;6234624;23;20016;-73
2021/12/15 00:25:04;;;;;;;51.88;21.98;;;;;;;-3.73;95.39;100746.19;6209328;23;20271;-74
2021/12/15 00:27:29;;;;;;;54.63;22.75;;;;;;;-3.73;95.17;100746.19;6234346;23;20020;-75
2021/12/15 00:29:56;;;;;;;44.88;21.10;;;;;;;-3.82;95.50;100724.75;6210987;23;20020;-75
2021/12/15 00:32:22;;;;;;;43.38;20.08;;;;;;;-3.74;95.50;100741.06;6210428;23;20040;-74
2021/12/15 00:34:50;;;;;;;46.05;18.20;;;;;;;-3.76;95.56;100729.97;6208940;23;20017;-73
2021/12/15 00:37:19;;;;;;;55.70;24.05;;;;;;;-3.78;95.66;100726.53;6111999;23;20107;-73
2021/12/15 00:39:57;;;;;;;59.78;24.35;;;;;;;-3.67;95.84;100731.81;6158537;23;20017;-73
2021/12/15 00:42:24;;;;;;;62.13;26.73;;;;;;;-3.67;95.02;100730.13;6139127;23;20036;-73
2021/12/15 00:44:50;;;;;;;64.18;28.50;;;;;;;-3.61;94.77;100735.34;6159359;23;20021;-75
2021/12/15 00:47:16;;;;;;;53.13;23.33;;;;;;;-3.61;94.66;100730.22;6234104;23;20444;-74
2021/12/15 00:49:42;;;;;;;60.33;26.23;;;;;;;-3.61;95.01;100735.34;6210497;23;20016;-73
2021/12/15 00:52:08;;;;;;;57.95;24.58;;;;;;;-3.61;94.67;100734.47;6160021;23;20498;-73
2021/12/15 00:54:34;;;;;;;59.50;25.55;;;;;;;-3.65;94.85;100733.56;6208605;23;20016;-74
2021/12/15 00:57:01;;;;;;;58.40;26.23;;;;;;;-3.63;94.70;100729.31;6209079;23;20031;-75
2021/12/15 00:59:27;;;;;;;46.70;19.83;;;;;;;-3.70;94.88;100728.38;6183931;23;20240;-74
2021/12/15 01:01:53;;;;;;;43.78;20.75;;;;;;;-3.72;94.99;100737.69;6209354;23;20027;-75
2021/12/15 01:04:19;;;;;;;55.83;22.65;;;;;;;-3.71;95.12;100723.25;6208850;23;20399;-75
2021/12/15 01:06:49;;;;;;;61.28;25.08;;;;;;;-3.73;95.27;100727.50;6209251;23;20040;-75
2021/12/15 01:09:18;;;;;;;31.98;18.00;;;;;;;-3.80;95.21;100726.53;6234046;23;20416;-74
2021/12/15 01:14:36;;;;;;;53.90;22.70;;;;;;;-3.74;95.58;100728.31;6218308;23;20016;-74
2021/12/15 01:19:54;;;;;;;25.88;13.63;;;;;;;-3.86;95.41;100708.53;6218539;23;20020;-75
2021/12/15 01:22:36;;;;;;;28.80;13.20;;;;;;;-3.93;96.03;100704.22;6241396;23;20028;-74
2021/12/15 01:25:16;;;;;;;37.70;16.98;;;;;;;-3.86;95.74;100708.53;6213868;23;20057;-73
2021/12/15 01:27:42;;;;;;;40.10;19.08;;;;;;;-3.90;96.05;100701.69;6189021;23;20098;-73
2021/12/15 01:30:09;;;;;;;47.53;23.15;;;;;;;-3.87;96.07;100701.75;6213761;23;20016;-75
2021/12/15 01:32:35;;;;;;;55.90;25.00;;;;;;;-3.84;95.91;100701.81;6188472;23;20023;-74
2021/12/15 01:35:01;;;;;;;56.15;21.77;;;;;;;-3.84;95.98;100693.28;6164276;23;20016;-74
2021/12/15 01:37:28;;;;;;;41.83;20.70;;;;;;;-3.81;95.78;100690.78;6163706;23;20022;-75
2021/12/15 01:39:56;;;;;;;52.10;21.85;;;;;;;-3.79;95.69;100689.09;6163765;23;20028;-74
2021/12/15 01:42:25;;;;;;;58.13;26.70;;;;;;;-3.78;95.51;100689.16;6140586;23;20136;-74
2021/12/15 01:47:38;;;;;;;52.72;22.15;;;;;;;-3.83;95.91;100677.16;6213155;23;20016;-74
2021/12/15 01:53:00;;;;;;;46.78;18.20;;;;;;;-3.75;95.89;100688.31;6170105;23;20074;-75
2021/12/15 01:55:26;;;;;;;61.22;25.95;;;;;;;-3.72;96.23;100690.94;6163868;23;20020;-74
2021/12/15 01:57:56;;;;;;;39.75;17.60;;;;;;;-3.82;96.26;100678.84;6140031;23;20070;-74
2021/12/15 02:00:33;;;;;;;55.70;24.17;;;;;;;-3.82;96.27;100676.31;6189553;23;20020;-73
2021/12/15 02:03:00;;;;;;;57.55;24.13;;;;;;;-3.69;96.43;100690.97;6140579;23;20028;-73
2021/12/15 02:05:28;;;;;;;44.67;20.98;;;;;;;-3.73;96.65;100684.97;6139723;23;20038;-72
2021/12/15 02:07:59;;;;;;;62.30;25.42;;;;;;;-3.66;96.87;100677.44;6141697;23;20022;-73
2021/12/15 02:10:29;;;;;;;66.35;25.85;;;;;;;-3.70;96.54;100685.00;6213319;23;20039;-72
2021/12/15 02:12:56;;;;;;;56.85;23.77;;;;;;;-3.71;97.04;100687.56;6139008;23;20019;-72
2021/12/15 02:15:34;;;;;;;65.88;26.10;;;;;;;-3.64;96.96;100683.41;6163848;23;20364;-73
2021/12/15 02:18:01;;;;;;;65.22;26.23;;;;;;;-3.62;97.04;100691.94;6165238;23;20020;-73
2021/12/15 02:20:38;;;;;;;67.70;26.50;;;;;;;-3.61;97.01;100691.09;6212913;23;20016;-73
2021/12/15 02:23:07;;;;;;;65.32;28.23;;;;;;;-3.62;97.15;100677.47;6188780;23;20016;-72
2021/12/15 02:25:33;;;;;;;73.57;26.88;;;;;;;-3.63;97.15;100685.97;6163101;23;20244;-73
2021/12/15 02:28:02;;;;;;;73.95;28.95;;;;;;;-3.58;97.15;100692.00;6138986;23;20016;-74
2021/12/15 02:30:48;;;;;;;73.43;28.50;;;;;;;-3.61;97.09;100681.75;6213271;23;20020;-73
2021/12/15 02:38:36;;;;;;;78.05;30.02;;;;;;;-3.58;97.40;100680.94;6217049;23;20027;-72
2021/12/15 02:41:19;;;;;;;80.82;32.47;;;;;;;-3.65;97.18;100672.34;6140279;23;20024;-73
2021/12/15 02:43:55;;;;;;;76.85;30.52;;;;;;;-3.56;97.39;100686.91;6213170;23;20016;-73
2021/12/15 02:46:28;;;;;;;64.70;26.98;;;;;;;-3.56;97.39;100679.25;6187797;23;20070;-73
2021/12/15 02:48:59;;;;;;;82.13;33.92;;;;;;;-3.57;97.79;100686.09;6164898;23;20024;-74
2021/12/15 02:51:25;;;;;;;88.43;35.08;;;;;;;-3.60;97.79;100686.03;6213048;23;20048;-75
2021/12/15 02:54:12;;;;;;;46.50;17.10;;;;;;;-3.60;97.82;100686.03;6239442;23;20396;-74
2021/12/15 02:56:42;;;;;;;68.90;27.73;;;;;;;-3.72;97.99;100678.16;6185963;23;20022;-75
2021/12/15 02:59:09;;;;;;;80.00;31.17;;;;;;;-3.66;97.86;100679.97;6163567;23;20020;-75
2021/12/15 03:02:03;;;;;;;85.20;29.98;;;;;;;-3.70;97.80;100673.97;6239592;23;20146;-75
2021/12/15 03:07:14;;;;;;;72.03;27.65;;;;;;;-3.78;97.89;100655.13;6165477;23;20074;-74
2021/12/15 03:17:43;;;;;;;80.10;29.33;;;;;;;-3.74;97.85;100650.09;6214399;23;20055;-74
2021/12/15 03:20:11;;;;;;;55.67;22.08;;;;;;;-3.65;97.82;100662.13;6140572;23;20019;-75
2021/12/15 03:22:37;;;;;;;69.50;29.55;;;;;;;-3.72;97.95;100645.00;6214290;23;20024;-76
2021/12/15 03:25:05;;;;;;;73.28;29.23;;;;;;;-3.73;97.84;100643.31;6165442;23;20034;-75
2021/12/15 03:36:03;;;;;;;48.22;18.95;;;;;;;-3.77;97.81;100634.75;6168585;23;20115;-79
2021/12/15 03:38:30;;;;;;;68.03;29.33;;;;;;;-3.67;97.73;100648.50;6168691;23;20422;-78
2021/12/15 03:40:56;;;;;;;70.47;27.77;;;;;;;-3.72;97.89;100650.13;6168595;23;20024;-78
2021/12/15 03:43:22;;;;;;;83.30;32.70;;;;;;;-3.75;97.54;100642.41;6175684;23;20044;-77
2021/12/15 03:45:52;;;;;;;79.57;29.27;;;;;;;-3.71;97.79;100646.75;6194649;23;20110;-77
2021/12/15 03:48:23;;;;;;;90.18;33.25;;;;;;;-3.69;97.85;100645.06;6189938;23;20015;-78
2021/12/15 03:50:51;;;;;;;97.70;35.58;;;;;;;-3.69;98.08;100639.97;6119265;23;20051;-78
2021/12/15 03:53:18;;;;;;;81.53;33.17;;;;;;;-3.59;97.85;100661.34;6189586;23;20020;-78
2021/12/15 03:55:44;;;;;;;77.38;31.55;;;;;;;-3.64;98.10;100653.66;6164798;23;20020;-77
2021/12/15 03:58:12;;;;;;;89.95;35.28;;;;;;;-3.74;97.84;100641.59;6190243;23;20020;-78
2021/12/15 04:00:44;;;;;;;58.05;23.63;;;;;;;-3.71;98.22;100641.63;6189373;23;20027;-78
2021/12/15 04:03:31;;;;;;;92.28;32.38;;;;;;;-3.57;98.37;100660.56;6165842;23;20020;-77
2021/12/15 04:05:58;;;;;;;80.97;30.80;;;;;;;-3.64;98.29;100646.00;6189873;23;20016;-78
2021/12/15 04:08:40;;;;;;;59.80;24.83;;;;;;;-3.53;98.50;100659.75;6139788;23;20098;-77
2021/12/15 04:11:12;;;;;;;97.15;33.17;;;;;;;-3.48;98.07;100658.16;6144565;23;20071;-78
2021/12/15 04:13:38;;;;;;;53.53;22.27;;;;;;;-3.61;98.25;100643.50;6173539;23;20059;-78
2021/12/15 04:16:07;;;;;;;70.68;26.30;;;;;;;-3.54;98.25;100640.19;6239412;23;20044;-78
2021/12/15 04:18:35;;;;;;;71.07;24.27;;;;;;;-3.42;98.50;100650.56;6189516;23;20012;-78
2021/12/15 04:21:14;;;;;;;97.35;32.45;;;;;;;-3.53;98.62;100630.84;6164826;23;20050;-78
2021/12/15 04:23:40;;;;;;;91.70;30.33;;;;;;;-3.39;98.09;100644.66;6213650;23;20028;-77
2021/12/15 04:26:06;;;;;;;101.18;32.50;;;;;;;-3.49;98.65;100627.50;6189325;23;20526;-77
2021/12/15 04:28:34;;;;;;;86.63;29.10;;;;;;;-3.51;98.65;100619.84;6188748;23;20100;-78
2021/12/15 04:31:03;;;;;;;83.28;28.58;;;;;;;-3.41;98.51;100641.22;6165081;23;20093;-76
2021/12/15 04:33:36;;;;;;;111.60;35.25;;;;;;;-3.39;98.61;100634.44;6238956;23;20027;-77
2021/12/15 04:36:11;;;;;;;85.45;27.63;;;;;;;-3.41;98.68;100629.31;6189531;23;20459;-78
2021/12/15 04:39:04;;;;;;;66.05;23.50;;;;;;;-3.22;98.78;100633.84;6239105;23;20440;-81
2021/12/15 04:41:31;;;;;;;70.88;25.38;;;;;;;-3.31;98.83;100627.75;6194541;23;20020;-82
2021/12/15 04:43:59;;;;;;;85.13;29.92;;;;;;;-3.54;98.65;100599.38;6160428;23;20016;-84
2021/12/15 04:46:29;;;;;;;82.47;28.50;;;;;;;-3.41;98.57;100619.13;6215458;23;20046;-83
2021/12/15 04:48:56;;;;;;;86.38;30.35;;;;;;;-3.38;98.53;100621.72;6165036;23;20031;-83
2021/12/15 04:51:23;;;;;;;90.80;32.53;;;;;;;-3.36;98.66;100617.47;6189163;23;20036;-82
2021/12/15 04:53:49;;;;;;;97.38;34.50;;;;;;;-3.39;98.65;100621.69;6186083;23;20083;-82
2021/12/15 04:56:16;;;;;;;94.18;33.83;;;;;;;-3.47;98.51;100606.28;6210293;23;20012;-82
2021/12/15 04:58:42;;;;;;;83.60;33.75;;;;;;;-3.41;98.37;100621.69;6188244;23;20280;-83
2021/12/15 05:01:17;;;;;;;87.82;32.42;;;;;;;-3.39;98.06;100622.53;6178586;23;20022;-82
2021/12/15 05:03:47;;;;;;;117.93;36.08;;;;;;;-3.36;98.22;100631.94;6179258;23;20016;-81
2021/12/15 05:06:14;;;;;;;110.97;38.97;;;;;;;-3.40;98.53;100625.91;6235679;23;20031;-81
2021/12/15 05:08:41;;;;;;;133.52;47.85;;;;;;;-3.42;98.56;100607.19;6163531;23;20076;-82
2021/12/15 05:11:08;;;;;;;148.15;51.92;;;;;;;-3.38;98.37;100624.25;6211574;23;20138;-81
2021/12/15 05:13:34;;;;;;;123.43;43.20;;;;;;;-3.42;98.81;100614.84;6156426;23;20015;-82
2021/12/15 05:16:02;;;;;;;112.90;37.83;;;;;;;-3.35;98.40;100624.31;6245894;23;20027;-81
2021/12/15 05:18:44;;;;;;;104.82;35.40;;;;;;;-3.32;98.68;100632.00;6188190;23;20484;-81
2021/12/15 05:21:11;;;;;;;90.50;32.05;;;;;;;-3.41;98.52;100631.88;6147180;23;20123;-81
2021/12/15 05:23:38;;;;;;;99.57;35.15;;;;;;;-3.32;98.75;100641.34;6195935;23;20091;-81
2021/12/15 05:26:04;;;;;;;114.90;40.70;;;;;;;-3.42;98.84;100625.06;6168320;23;20020;-80
2021/12/15 05:28:30;;;;;;;118.78;40.03;;;;;;;-3.37;98.40;100623.41;6141967;23;20035;-80
2021/12/15 05:30:57;;;;;;;97.65;36.63;;;;;;;-3.35;98.61;100633.66;6242565;23;20012;-79
2021/12/15 05:33:26;;;;;;;104.90;35.17;;;;;;;-3.31;98.75;100628.63;6162510;23;20020;-81
2021/12/15 05:35:53;;;;;;;94.63;31.02;;;;;;;-3.31;99.07;100628.63;6191421;23;20050;-82
2021/12/15 05:38:21;;;;;;;96.65;33.58;;;;;;;-3.34;99.00;100608.13;6170694;23;20039;-82
2021/12/15 05:40:47;;;;;;;87.20;29.75;;;;;;;-3.24;98.34;100622.72;6200174;23;20531;-82
2021/12/15 05:43:13;;;;;;;92.60;32.17;;;;;;;-3.13;98.48;100632.22;6145773;23;20023;-80
2021/12/15 05:45:39;;;;;;;79.93;28.95;;;;;;;-3.18;98.01;100620.28;6244676;23;20019;-79
2021/12/15 05:48:10;;;;;;;62.22;22.73;;;;;;;-3.11;98.23;100620.34;6136722;23;20023;-80
2021/12/15 05:50:36;;;;;;;79.50;28.48;;;;;;;-3.18;97.60;100614.31;6213551;23;20020;-81
2021/12/15 05:53:03;;;;;;;73.25;25.35;;;;;;;-3.01;97.74;100632.41;6170294;23;20023;-80
2021/12/15 05:55:29;;;;;;;70.97;25.70;;;;;;;-3.07;97.77;100609.31;6216232;23;20011;-81
2021/12/15 05:57:56;;;;;;;71.30;23.50;;;;;;;-3.10;97.30;100612.69;6169611;23;20024;-80
2021/12/15 06:00:26;;;;;;;72.28;27.48;;;;;;;-2.94;97.30;100629.06;6247002;23;20016;-80
2021/12/15 06:02:54;;;;;;;66.20;22.90;;;;;;;-2.94;97.24;100616.28;6172248;23;20027;-79
2021/12/15 06:05:24;;;;;;;69.47;25.10;;;;;;;-2.95;96.58;100617.16;6138959;23;20044;-80
2021/12/15 06:07:50;;;;;;;72.57;24.30;;;;;;;-2.99;96.44;100607.72;6189072;23;20016;-79
2021/12/15 06:10:19;;;;;;;62.13;23.38;;;;;;;-2.99;97.07;100600.06;6187134;23;20087;-79
2021/12/15 06:12:48;;;;;;;62.83;24.02;;;;;;;-2.89;96.86;100612.09;6161726;23;20020;-76
2021/12/15 06:15:20;;;;;;;54.25;21.55;;;;;;;-2.92;96.48;100606.97;6212097;23;20016;-82
2021/12/15 06:17:48;;;;;;;64.50;23.58;;;;;;;-2.92;96.18;100592.50;6172123;23;20075;-81
2021/12/15 06:20:15;;;;;;;54.38;19.65;;;;;;;-2.95;96.31;100597.56;6162145;23;20183;-80
2021/12/15 06:22:44;;;;;;;59.75;19.73;;;;;;;-2.90;96.64;100610.38;6210962;23;20744;-77
2021/12/15 06:25:10;;;;;;;80.75;26.98;;;;;;;-3.01;96.53;100596.66;6211703;23;20032;-78
2021/12/15 06:27:40;;;;;;;53.85;20.20;;;;;;;-3.01;96.68;100599.19;6142334;23;20015;-78
2021/12/15 06:30:07;;;;;;;56.80;20.23;;;;;;;-2.97;96.63;100613.69;6161431;23;20665;-80
2021/12/15 06:32:34;;;;;;;58.17;20.98;;;;;;;-2.93;97.24;100611.22;6211008;23;20023;-78
2021/12/15 06:35:00;;;;;;;65.82;24.67;;;;;;;-2.98;97.46;100607.75;6135295;23;20047;-81
2021/12/15 06:37:27;;;;;;;60.28;20.92;;;;;;;-2.99;97.27;100610.28;6184970;23;20479;-79
2021/12/15 06:39:53;;;;;;;64.70;21.45;;;;;;;-2.96;97.49;100610.31;6213101;23;20012;-78
2021/12/15 06:42:19;;;;;;;65.32;20.00;;;;;;;-2.85;97.97;100619.84;6188208;23;20075;-79
2021/12/15 06:44:49;;;;;;;75.55;25.85;;;;;;;-2.83;97.91;100622.38;6163489;23;20360;-77
2021/12/15 06:58:24;;;;;;;74.38;20.95;;;;;;;-2.84;98.52;100626.63;6189635;23;20020;-78
2021/12/15 07:00:56;;;;;;;115.95;26.67;;;;;;;-2.97;99.09;100603.47;6239779;23;20031;-80
2021/12/15 07:03:26;;;;;;;94.00;24.15;;;;;;;-2.90;99.16;100610.38;6134167;23;20016;-79
2021/12/15 07:05:55;;;;;;;102.40;25.15;;;;;;;-2.85;99.45;100621.53;6138631;23;20058;-78
2021/12/15 07:08:28;;;;;;;136.25;30.95;;;;;;;-2.87;99.66;100618.06;6242272;23;20051;-78
2021/12/15 07:11:02;;;;;;;129.68;31.10;;;;;;;-2.82;99.85;100627.53;6167492;23;20016;-79
2021/12/15 07:13:28;;;;;;;112.30;30.40;;;;;;;-2.80;100.00;100628.38;6239717;22;20041;-83
2021/12/15 07:16:08;;;;;;;100.00;25.83;;;;;;;-2.81;100.00;100625.81;6177966;23;20012;-77
2021/12/15 07:18:44;;;;;;;107.22;28.30;;;;;;;-2.81;99.89;100611.34;6158773;23;20036;-81
2021/12/15 07:21:17;;;;;;;102.38;29.55;;;;;;;-2.93;99.96;100595.03;6227606;23;20024;-78
2021/12/15 07:23:48;;;;;;;107.13;29.88;;;;;;;-2.72;100.00;100611.47;6201345;23;20023;-83
2021/12/15 07:26:15;;;;;;;101.20;29.00;;;;;;;-2.76;99.75;100624.16;6217863;23;20023;-79
2021/12/15 07:28:52;;;;;;;77.85;22.63;;;;;;;-2.74;99.80;100628.44;6211071;23;20004;-81
2021/12/15 07:31:23;;;;;;;91.82;27.77;;;;;;;-2.67;99.83;100630.25;6223251;22;20536;-80
2021/12/15 07:33:52;;;;;;;97.50;31.37;;;;;;;-2.77;99.74;100612.22;6223558;23;20020;-84
2021/12/15 07:36:18;;;;;;;64.70;21.50;;;;;;;-2.74;99.30;100617.38;6220366;23;20016;-75
2021/12/15 07:38:48;;;;;;;75.72;22.30;;;;;;;-2.66;99.21;100614.06;6232042;22;20004;-81
2021/12/15 07:41:27;;;;;;;60.92;21.85;;;;;;;-2.60;98.33;100610.72;6142859;23;20055;-81
2021/12/15 07:43:54;;;;;;;39.65;16.23;;;;;;;-2.54;97.37;100625.25;6166476;23;20515;-80
2021/12/15 07:46:23;;;;;;;54.58;19.70;;;;;;;-2.54;97.30;100617.56;6218024;23;20024;-78
2021/12/15 07:48:53;;;;;;;30.08;11.25;;;;;;;-2.47;97.26;100629.59;6175610;23;20026;-80
2021/12/15 07:56:07;;;;;;;38.97;15.18;;;;;;;-2.32;96.48;100627.16;6242941;23;20086;-77
2021/12/15 07:58:33;;;;;;;12.32;8.02;;;;;;;-2.37;95.97;100616.91;6194775;23;20103;-81
2021/12/15 08:01:04;;;;;;;26.45;12.23;;;;;;;-2.29;95.42;100619.56;6172968;23;20027;-80
2021/12/15 08:03:43;;;;;;;46.47;17.63;;;;;;;-2.21;95.32;100623.88;6222389;23;20247;-80
2021/12/15 08:06:11;;;;;;;47.10;18.05;;;;;;;-2.18;95.07;100630.72;6197132;23;20031;-82
2021/12/15 08:08:40;;;;;;;47.50;19.35;;;;;;;-2.32;95.55;100601.59;6169409;23;20027;-80
2021/12/15 08:11:08;;;;;;;45.35;17.42;;;;;;;-2.14;95.58;100617.97;6198288;23;20016;-82
2021/12/15 08:13:35;;;;;;;24.85;13.00;;;;;;;-2.17;94.62;100619.66;6196108;23;20099;-79
2021/12/15 08:16:02;;;;;;;40.47;14.80;;;;;;;-2.25;94.64;100603.38;6169340;23;20348;-79
2021/12/15 08:18:28;;;;;;;30.10;13.70;;;;;;;-2.26;94.22;100614.47;6190473;23;20062;-79
2021/12/15 08:20:54;;;;;;;42.65;16.00;;;;;;;-2.14;94.93;100607.75;6212299;23;20047;-78
2021/12/15 08:23:21;;;;;;;31.80;14.77;;;;;;;-2.11;94.51;100615.44;6164089;23;20027;-78
2021/12/15 08:26:12;;;;;;;41.35;16.58;;;;;;;-2.04;94.58;100618.91;6163513;23;20016;-79
2021/12/15 08:28:38;;;;;;;32.97;15.88;;;;;;;-2.10;93.90;100608.63;6185775;23;20491;-80
2021/12/15 08:31:13;;;;;;;43.33;17.05;;;;;;;-1.96;94.17;100626.66;6213292;23;20016;-81
2021/12/15 08:33:41;;;;;;;43.33;19.20;;;;;;;-2.02;94.18;100626.59;6167319;23;20380;-79
2021/12/15 08:36:11;;;;;;;50.92;20.38;;;;;;;-2.11;94.70;100601.81;6167612;23;20426;-82
2021/12/15 08:38:41;;;;;;;48.80;20.83;;;;;;;-2.01;94.35;100620.63;6143880;23;20059;-80
2021/12/15 08:41:15;;;;;;;53.30;21.48;;;;;;;-2.07;94.63;100608.66;6219569;23;20024;-81
2021/12/15 08:43:48;;;;;;;51.97;20.52;;;;;;;-2.00;95.08;100619.78;6197269;23;20026;-81
2021/12/15 08:46:20;;;;;;;59.95;23.05;;;;;;;-1.97;94.63;100614.69;6168949;23;20069;-80
2021/12/15 08:48:47;;;;;;;58.30;19.60;;;;;;;-2.17;94.30;100582.16;6242232;23;20641;-79
2021/12/15 08:51:18;;;;;;;69.10;25.25;;;;;;;-1.93;94.28;100609.59;6167992;23;20072;-81
2021/12/15 08:53:47;;;;;;;55.30;22.80;;;;;;;-2.03;94.42;100596.75;6193413;23;20031;-80
2021/12/15 08:56:27;;;;;;;30.65;13.38;;;;;;;-2.08;94.36;100595.84;6153378;23;20095;-82
2021/12/15 08:59:00;;;;;;;46.08;18.33;;;;;;;-2.16;94.41;100583.84;6167720;23;20051;-79
2021/12/15 09:01:47;;;;;;;46.38;19.13;;;;;;;-2.11;94.40;100594.97;6165330;23;20051;-79
2021/12/15 09:04:18;;;;;;;61.00;21.67;;;;;;;-2.12;94.59;100600.06;6194676;23;20016;-81
2021/12/15 09:06:46;;;;;;;58.42;19.13;;;;;;;-2.11;95.11;100594.13;6190194;23;20085;-79
2021/12/15 09:09:25;;;;;;;61.00;22.02;;;;;;;-2.18;94.96;100575.31;6164719;23;20024;-79
2021/12/15 09:12:02;;;;;;;67.78;24.42;;;;;;;-2.16;95.02;100583.84;6192200;23;20134;-80
2021/12/15 09:14:28;;;;;;;52.97;20.15;;;;;;;-2.14;94.93;100578.75;6163429;23;20016;-81
2021/12/15 09:16:56;;;;;;;74.10;26.35;;;;;;;-2.11;95.18;100581.34;6239951;23;20024;-80
2021/12/15 09:19:24;;;;;;;72.40;26.60;;;;;;;-1.93;94.69;100601.09;6166478;23;20016;-80
2021/12/15 09:21:55;;;;;;;62.25;22.85;;;;;;;-1.96;95.01;100566.09;6214022;23;20015;-79
2021/12/15 09:24:31;;;;;;;73.80;26.85;;;;;;;-1.88;93.51;100573.81;6190710;23;20020;-80
2021/12/15 09:27:00;;;;;;;61.53;22.77;;;;;;;-1.62;93.94;100590.22;6219295;23;20016;-80
2021/12/15 09:29:27;;;;;;;61.05;22.42;;;;;;;-1.64;93.42;100591.91;6213479;23;20048;-79
2021/12/15 09:31:53;;;;;;;55.72;23.63;;;;;;;-1.74;93.10;100580.75;6239958;22;20470;-79
2021/12/15 09:34:19;;;;;;;45.20;18.38;;;;;;;-1.75;93.45;100562.84;6188213;23;20024;-79
2021/12/15 09:36:49;;;;;;;58.33;21.65;;;;;;;-1.52;93.05;100574.06;6188320;23;20012;-80
2021/12/15 09:39:27;;;;;;;46.25;18.13;;;;;;;-1.53;92.59;100582.56;6165471;23;20048;-78
2021/12/15 09:42:00;;;;;;;50.78;20.63;;;;;;;-1.60;92.02;100570.59;6174245;23;20074;-78
2021/12/15 09:44:28;;;;;;;;;;;;;;;-1.57;92.45;100585.97;6189372;23;20020;-80
2021/12/15 09:47:10;;;;;;;53.97;20.48;;;;;;;-1.62;92.55;100567.16;6238989;23;19994;-79
2021/12/15 10:17:41;;;;;;;57.55;25.15;;;;;;;-1.69;92.43;100540.69;6209263;23;20020;-80
2021/12/15 10:20:13;;;;;;;45.43;17.83;;;;;;;-1.81;92.88;100504.81;6154426;23;20109;-80
2021/12/15 10:22:43;;;;;;;;;;;;;;;-1.66;92.63;100530.47;6189524;23;20247;-78
2021/12/15 10:25:14;;;;;;;43.10;18.30;;;;;;;-1.66;92.67;100524.50;6187155;23;19916;-79
2021/12/15 10:27:52;;;;;;;51.50;21.70;;;;;;;-1.85;92.89;100484.31;6187600;23;20023;-78
2021/12/15 10:30:28;;;;;;;40.30;18.50;;;;;;;-1.57;92.99;100519.41;6212952;23;20047;-78
2021/12/15 10:33:12;;;;;;;44.63;20.15;;;;;;;-1.48;92.01;100514.34;6212678;23;20016;-78
2021/12/15 10:35:46;;;;;;;40.88;17.92;;;;;;;-1.55;92.01;100506.63;6238338;23;20662;-79
2021/12/15 10:38:29;;;;;;;39.83;17.70;;;;;;;-1.55;91.62;100511.75;6139815;23;20024;-79
2021/12/15 10:41:00;;;;;;;38.85;17.83;;;;;;;-1.74;92.33;100496.31;6216006;23;20031;-79
2021/12/15 10:43:44;;;;;;;35.57;15.27;;;;;;;-1.61;92.46;100522.81;6256599;23;20016;-81
2021/12/15 10:46:22;;;;;;;42.28;19.67;;;;;;;-1.65;92.42;100518.53;6232609;23;20052;-79
2021/12/15 10:49:14;;;;;;;36.78;16.63;;;;;;;-1.62;92.73;100515.97;6202571;23;20104;-80
2021/12/15 10:51:50;;;;;;;40.28;17.85;;;;;;;-1.62;93.14;100514.28;6242909;23;20074;-81
2021/12/15 10:54:46;;;;;;;37.10;17.80;;;;;;;-1.79;93.05;100481.78;6238016;23;20024;-78
2021/12/15 10:57:18;;;;;;;40.97;15.57;;;;;;;-1.90;92.93;100476.63;6140072;23;20022;-78
2021/12/15 10:59:51;;;;;;;23.20;12.65;;;;;;;-1.93;92.73;100473.19;6212610;23;20107;-78
2021/12/15 11:02:25;;;;;;;37.45;17.15;;;;;;;-1.78;93.76;100493.72;6187893;23;20349;-79
2021/12/15 11:05:07;;;;;;;42.78;18.85;;;;;;;-1.69;93.61;100514.25;6139168;23;20041;-78
2021/12/15 11:07:40;;;;;;;40.22;18.13;;;;;;;-1.70;94.26;100502.28;6188544;23;20023;-78
2021/12/15 11:10:10;;;;;;;38.60;17.80;;;;;;;-1.72;93.25;100498.88;6187769;23;20476;-78
2021/12/15 11:12:51;;;;;;;24.00;12.38;;;;;;;-1.66;93.70;100512.56;6237315;23;20215;-79
2021/12/15 11:15:48;;;;;;;32.05;12.57;;;;;;;-1.69;93.90;100494.63;6187168;23;20024;-77
2021/12/15 11:18:23;;;;;;;9.88;7.53;;;;;;;-1.87;93.86;100471.53;6204000;23;20016;-80
2021/12/15 11:20:52;;;;;;;30.85;14.48;;;;;;;-1.61;94.48;100503.22;6140054;23;20028;-81
2021/12/15 11:23:41;;;;;;;46.55;17.77;;;;;;;-1.71;94.46;100478.41;6163336;23;20048;-80
2021/12/15 11:26:11;;;;;;;36.15;16.40;;;;;;;-1.54;93.85;100491.28;6191371;23;20016;-79
2021/12/15 11:29:03;;;;;;;38.38;16.23;;;;;;;-1.32;93.79;100498.19;6165154;23;20016;-79
2021/12/15 11:31:35;;;;;;;39.03;17.83;;;;;;;-1.52;93.15;100476.78;6188627;23;20078;-80
2021/12/15 11:34:08;;;;;;;37.92;16.67;;;;;;;-1.29;93.01;100511.00;6193295;23;20012;-81
2021/12/15 11:36:46;;;;;;;49.25;20.00;;;;;;;-1.37;95.03;100509.25;6168638;23;20016;-80
2021/12/15 11:39:20;;;;;;;48.92;19.42;;;;;;;-1.43;94.75;100499.84;6163667;23;20353;-79
2021/12/15 11:41:53;;;;;;;37.75;18.58;;;;;;;-1.46;93.75;100492.16;6143522;23;20460;-81
2021/12/15 11:44:45;;;;;;;44.50;19.92;;;;;;;-1.43;92.60;100504.97;6194713;23;20023;-82
2021/12/15 11:47:13;;;;;;;42.17;20.27;;;;;;;-1.50;93.04;100495.56;6214795;23;20020;-79
2021/12/15 11:49:46;;;;;;;20.50;11.43;;;;;;;-1.76;93.39;100476.66;6168317;23;20054;-81
2021/12/15 11:52:14;;;;;;;37.60;16.58;;;;;;;-1.51;93.55;100514.34;6141087;23;20023;-79
2021/12/15 11:54:50;;;;;;;39.17;16.90;;;;;;;-1.54;93.54;100488.75;6165384;23;20024;-80
2021/12/15 11:57:31;;;;;;;24.85;11.80;;;;;;;-1.51;93.16;100510.91;6215578;23;20095;-79
2021/12/15 12:00:05;;;;;;;36.85;17.25;;;;;;;-1.61;93.06;100498.09;6181439;23;20016;-79
2021/12/15 12:02:48;;;;;;;32.90;15.18;;;;;;;-1.52;93.32;100509.19;6196112;23;20153;-80
2021/12/15 12:05:19;;;;;;;34.80;15.02;;;;;;;-1.73;93.79;100485.22;6148690;23;20027;-81
2021/12/15 12:07:53;;;;;;;29.08;13.38;;;;;;;-1.77;93.87;100480.09;6224051;23;20078;-80
2021/12/15 12:10:26;;;;;;;28.70;13.88;;;;;;;-1.64;94.51;100504.91;6200753;23;20027;-81
2021/12/15 12:13:03;;;;;;;40.92;17.50;;;;;;;-1.76;93.96;100469.84;6191964;23;20051;-82
2021/12/15 12:15:33;;;;;;;34.45;16.88;;;;;;;-1.62;93.77;100498.06;6198776;23;20084;-81
2021/12/15 12:18:14;;;;;;;43.83;18.10;;;;;;;-1.62;94.24;100505.75;6199224;23;20023;-81
2021/12/15 12:20:45;;;;;;;43.70;17.00;;;;;;;-1.55;94.21;100522.00;6167921;23;20027;-81
2021/12/15 12:23:14;;;;;;;46.85;18.55;;;;;;;-1.57;94.34;100514.28;6216905;23;20024;-80
2021/12/15 12:26:06;;;;;;;39.75;18.05;;;;;;;-1.70;93.99;100498.03;6207008;23;20106;-82
2021/12/15 12:28:38;;;;;;;38.83;16.98;;;;;;;-1.77;94.32;100480.09;6198812;23;20020;-81
2021/12/15 12:31:13;;;;;;;45.15;18.00;;;;;;;-1.54;94.17;100519.44;6220508;23;20023;-80
2021/12/15 12:33:39;;;;;;;46.67;17.83;;;;;;;-1.71;94.00;100496.34;6171933;23;20020;-80
2021/12/15 12:36:13;;;;;;;53.30;20.05;;;;;;;-1.54;94.22;100522.00;6151361;23;20023;-82
2021/12/15 12:38:48;;;;;;;49.38;20.40;;;;;;;-1.71;94.30;100492.91;6155988;23;20064;-83
2021/12/15 12:41:23;;;;;;;38.50;15.63;;;;;;;-1.74;94.46;100488.66;6225984;23;20016;-79
2021/12/15 12:43:54;;;;;;;28.50;12.63;;;;;;;-1.60;93.85;100514.28;6197867;23;20031;-81
2021/12/15 12:46:42;;;;;;;33.95;14.90;;;;;;;-1.80;94.81;100480.09;6148788;23;20516;-82
2021/12/15 13:01:11;;;;;;;31.58;14.25;;;;;;;-1.63;94.93;100525.38;6202450;23;20476;-80
2021/12/15 13:03:45;;;;;;;47.15;18.17;;;;;;;-1.67;94.66;100508.28;6192211;23;20016;-79
2021/12/15 13:06:16;;;;;;;42.22;18.38;;;;;;;-1.61;94.71;100517.72;6167583;23;20098;-80
2021/12/15 13:08:55;;;;;;;38.55;17.05;;;;;;;-1.61;94.54;100521.13;6218776;23;20022;-79
2021/12/15 13:11:34;;;;;;;44.80;17.60;;;;;;;-1.64;94.66;100515.97;6163096;23;20024;-82
2021/12/15 13:14:32;;;;;;;32.40;15.35;;;;;;;-1.70;94.55;100503.13;6195283;23;20016;-82